Time;durP1;ratioP1;P1;durP2;ratioP2;P2;SDS_P1;SDS_P2;PMS_P1;PMS_P2;Temp;Humidity;BMP_temperature;BMP_pressure;BME280_temperature;BME280_humidity;BME280_pressure;Samples;Min_cycle;Max_cycle;Signal;HPM_P1;HPM_P2
2021/09/19 00:01:18;;;;;;;11.40;8.57;;;;;;;;;;4998428;28;20493;-85
2021/09/19 00:03:43;;;;;;;10.95;8.32;;;;;;;;;;5016064;28;20021;-85
2021/09/19 00:06:09;;;;;;;11.20;8.27;;;;;;;;;;4998240;28;20444;-85
2021/09/19 00:08:35;;;;;;;12.57;8.60;;;;;;;;;;4997940;28;20496;-85
2021/09/19 00:11:00;;;;;;;14.43;8.00;;;;;;;;;;4997851;28;20040;-85
2021/09/19 00:13:26;;;;;;;10.30;7.88;;;;;;;;;;4998280;28;20022;-85
2021/09/19 00:15:52;;;;;;;10.00;8.02;;;;;;;;;;5015646;28;20392;-85
2021/09/19 00:18:18;;;;;;;9.85;8.13;;;;;;;;;;4998294;28;20026;-85
2021/09/19 00:20:47;;;;;;;13.63;7.90;;;;;;;;;;4998044;28;20052;-85
2021/09/19 00:23:12;;;;;;;12.20;7.97;;;;;;;;;;4998376;28;20030;-85
2021/09/19 00:25:38;;;;;;;12.60;8.65;;;;;;;;;;5015939;28;20550;-85
2021/09/19 00:28:04;;;;;;;10.93;8.70;;;;;;;;;;5016318;28;20029;-85
2021/09/19 00:30:30;;;;;;;11.45;7.85;;;;;;;;;;5015918;28;20026;-85
2021/09/19 00:32:56;;;;;;;10.10;7.85;;;;;;;;;;5015995;28;20076;-85
2021/09/19 00:35:21;;;;;;;12.25;8.80;;;;;;;;;;4998340;28;20113;-85
2021/09/19 00:37:47;;;;;;;9.75;7.63;;;;;;;;;;4998080;28;20101;-85
2021/09/19 00:40:13;;;;;;;11.80;8.65;;;;;;;;;;4998254;28;20018;-85
2021/09/19 00:42:39;;;;;;;10.35;7.72;;;;;;;;;;4997809;28;20033;-85
2021/09/19 00:45:11;;;;;;;13.27;8.57;;;;;;;;;;4997865;28;20497;-85
2021/09/19 00:47:41;;;;;;;8.98;7.68;;;;;;;;;;5015513;28;20022;-85
2021/09/19 00:50:09;;;;;;;10.20;7.68;;;;;;;;;;5015385;28;20052;-85
2021/09/19 00:52:36;;;;;;;10.63;8.30;;;;;;;;;;5016054;28;20540;-85
2021/09/19 00:55:02;;;;;;;13.13;9.05;;;;;;;;;;5015741;28;20030;-85
2021/09/19 00:57:28;;;;;;;16.40;9.13;;;;;;;;;;4997400;28;20397;-84
2021/09/19 00:59:54;;;;;;;11.40;8.32;;;;;;;;;;5015265;28;20076;-85
2021/09/19 01:02:20;;;;;;;9.75;8.30;;;;;;;;;;5015553;28;20053;-85
2021/09/19 01:04:46;;;;;;;11.93;8.80;;;;;;;;;;5015231;28;20548;-85
2021/09/19 01:07:15;;;;;;;13.48;9.90;;;;;;;;;;5015153;28;20105;-85
2021/09/19 01:09:41;;;;;;;15.98;9.68;;;;;;;;;;4997175;28;20109;-85
2021/09/19 01:12:11;;;;;;;11.40;8.63;;;;;;;;;;5014994;28;20061;-84
2021/09/19 01:14:38;;;;;;;14.02;8.95;;;;;;;;;;5015113;28;20461;-84
2021/09/19 01:17:05;;;;;;;13.82;9.75;;;;;;;;;;5015241;28;20022;-84
2021/09/19 01:19:32;;;;;;;11.05;8.38;;;;;;;;;;4997622;28;20501;-84
2021/09/19 01:21:58;;;;;;;10.80;8.43;;;;;;;;;;5016844;28;20061;-84
2021/09/19 01:24:26;;;;;;;12.43;8.55;;;;;;;;;;5042349;28;20040;-83
2021/09/19 01:26:51;;;;;;;12.85;8.73;;;;;;;;;;5040862;28;20026;-84
2021/09/19 01:29:17;;;;;;;8.93;8.02;;;;;;;;;;5020937;28;20029;-84
2021/09/19 01:31:42;;;;;;;12.50;8.77;;;;;;;;;;5001325;28;20473;-84
2021/09/19 01:34:07;;;;;;;12.10;8.23;;;;;;;;;;5001262;28;20022;-84
2021/09/19 01:36:36;;;;;;;11.55;8.93;;;;;;;;;;5001160;28;20024;-84
2021/09/19 01:39:04;;;;;;;10.75;8.52;;;;;;;;;;5001218;28;20051;-84
2021/09/19 01:41:29;;;;;;;11.52;8.73;;;;;;;;;;5018295;28;20045;-84
2021/09/19 01:43:58;;;;;;;12.75;8.80;;;;;;;;;;5001006;28;20021;-84
2021/09/19 01:46:23;;;;;;;9.15;7.95;;;;;;;;;;5018828;28;20182;-84
2021/09/19 01:48:49;;;;;;;10.75;8.18;;;;;;;;;;5004052;28;20117;-84
2021/09/19 01:51:15;;;;;;;10.20;7.80;;;;;;;;;;5002620;28;20030;-84
2021/09/19 01:53:41;;;;;;;12.82;8.52;;;;;;;;;;5001018;28;20058;-84
2021/09/19 01:56:08;;;;;;;10.98;8.13;;;;;;;;;;5000702;28;20121;-84
2021/09/19 01:59:00;;;;;;;13.70;7.78;;;;;;;;;;5003127;28;20022;-84
2021/09/19 02:01:29;;;;;;;12.02;8.32;;;;;;;;;;5015669;28;20034;-84
2021/09/19 02:03:54;;;;;;;11.05;7.95;;;;;;;;;;5000953;28;20037;-84
2021/09/19 02:06:23;;;;;;;14.48;9.13;;;;;;;;;;5000601;28;20037;-84
2021/09/19 02:08:49;;;;;;;10.68;8.43;;;;;;;;;;5000534;28;20512;-84
2021/09/19 02:11:20;;;;;;;9.18;7.70;;;;;;;;;;5000397;28;20037;-84
2021/09/19 02:13:46;;;;;;;10.48;7.95;;;;;;;;;;5000373;28;20026;-84
2021/09/19 02:16:13;;;;;;;11.27;7.85;;;;;;;;;;5000410;28;20045;-84
2021/09/19 02:18:38;;;;;;;14.85;7.90;;;;;;;;;;5000220;28;20464;-84
2021/09/19 02:21:07;;;;;;;10.13;7.88;;;;;;;;;;5000383;28;20022;-84
2021/09/19 02:23:32;;;;;;;11.55;6.95;;;;;;;;;;5000193;28;20072;-84
2021/09/19 02:25:58;;;;;;;14.68;7.35;;;;;;;;;;5017832;28;20505;-84
2021/09/19 02:28:24;;;;;;;11.00;7.10;;;;;;;;;;4999796;28;20423;-84
2021/09/19 02:30:49;;;;;;;12.70;7.38;;;;;;;;;;5017685;28;20026;-84
2021/09/19 02:33:15;;;;;;;8.98;6.70;;;;;;;;;;4999786;28;20026;-84
2021/09/19 02:35:41;;;;;;;15.57;6.95;;;;;;;;;;5010515;28;20073;-83
2021/09/19 02:38:06;;;;;;;11.18;6.78;;;;;;;;;;5001304;28;20018;-84
2021/09/19 02:40:32;;;;;;;11.45;6.63;;;;;;;;;;5000532;28;20103;-84
2021/09/19 02:42:57;;;;;;;8.15;6.22;;;;;;;;;;5017599;28;20436;-84
2021/09/19 02:45:23;;;;;;;8.38;5.90;;;;;;;;;;4999685;28;20018;-84
2021/09/19 02:47:49;;;;;;;10.38;6.88;;;;;;;;;;5017436;28;20405;-84
2021/09/19 02:50:17;;;;;;;9.75;6.93;;;;;;;;;;4999357;28;20057;-84
2021/09/19 02:52:42;;;;;;;8.57;5.85;;;;;;;;;;5000337;28;20029;-84
2021/09/19 02:55:09;;;;;;;7.38;6.07;;;;;;;;;;5000198;28;20476;-84
2021/09/19 02:57:35;;;;;;;10.77;6.28;;;;;;;;;;5017213;28;20029;-84
2021/09/19 03:00:00;;;;;;;8.18;5.75;;;;;;;;;;4999562;28;20511;-84
2021/09/19 03:02:26;;;;;;;6.60;5.30;;;;;;;;;;4999637;28;20109;-84
2021/09/19 03:04:51;;;;;;;9.88;6.40;;;;;;;;;;4999144;28;20021;-84
2021/09/19 03:07:19;;;;;;;12.20;6.20;;;;;;;;;;4999285;28;20026;-84
2021/09/19 03:09:45;;;;;;;9.70;6.05;;;;;;;;;;4999330;28;20030;-84
2021/09/19 03:12:10;;;;;;;6.53;5.47;;;;;;;;;;4999261;28;20026;-84
2021/09/19 03:14:35;;;;;;;8.77;6.05;;;;;;;;;;4999208;28;20029;-84
2021/09/19 03:17:01;;;;;;;11.57;5.88;;;;;;;;;;5025240;28;20020;-83
2021/09/19 03:19:26;;;;;;;10.45;6.45;;;;;;;;;;5021833;28;20029;-84
2021/09/19 03:21:51;;;;;;;6.75;5.82;;;;;;;;;;4999430;28;20069;-84
2021/09/19 03:24:17;;;;;;;11.40;6.85;;;;;;;;;;4999308;28;20032;-84
2021/09/19 03:26:42;;;;;;;10.10;6.28;;;;;;;;;;5016479;28;20397;-84
2021/09/19 03:29:10;;;;;;;7.35;5.50;;;;;;;;;;4999124;28;20542;-84
2021/09/19 03:31:35;;;;;;;8.93;5.40;;;;;;;;;;5016720;28;20028;-85
2021/09/19 03:34:00;;;;;;;9.25;6.13;;;;;;;;;;5016574;28;20021;-84
2021/09/19 03:36:26;;;;;;;7.35;5.78;;;;;;;;;;5016439;28;20022;-84
2021/09/19 03:38:52;;;;;;;9.75;5.85;;;;;;;;;;4998534;28;20046;-84
2021/09/19 03:41:17;;;;;;;9.90;6.05;;;;;;;;;;4999071;28;20022;-84
2021/09/19 03:43:43;;;;;;;12.40;6.32;;;;;;;;;;4998678;28;20029;-85
2021/09/19 03:46:08;;;;;;;10.00;6.47;;;;;;;;;;4998424;28;20026;-85
2021/09/19 03:48:34;;;;;;;10.27;6.20;;;;;;;;;;4999330;28;20029;-85
2021/09/19 03:50:59;;;;;;;9.18;6.57;;;;;;;;;;5016517;28;20029;-84
2021/09/19 03:53:25;;;;;;;9.20;5.72;;;;;;;;;;5016344;28;20065;-84
2021/09/19 03:55:51;;;;;;;12.45;6.45;;;;;;;;;;5015595;28;20030;-85
2021/09/19 03:58:17;;;;;;;10.95;6.88;;;;;;;;;;5015105;28;20108;-84
2021/09/19 04:00:42;;;;;;;11.13;6.88;;;;;;;;;;5033503;28;20021;-84
2021/09/19 04:03:10;;;;;;;10.80;7.00;;;;;;;;;;5022051;28;20038;-84
2021/09/19 04:05:36;;;;;;;10.93;6.97;;;;;;;;;;4999154;28;20401;-85
2021/09/19 04:08:03;;;;;;;11.60;7.57;;;;;;;;;;5016271;28;20037;-84
2021/09/19 04:10:28;;;;;;;10.30;7.07;;;;;;;;;;4998316;28;20041;-84
2021/09/19 04:12:54;;;;;;;11.32;7.22;;;;;;;;;;5015658;28;20022;-83
2021/09/19 04:15:19;;;;;;;13.73;8.68;;;;;;;;;;5016203;28;20105;-84
2021/09/19 04:17:44;;;;;;;13.02;7.90;;;;;;;;;;5015976;28;20113;-85
2021/09/19 04:20:10;;;;;;;11.35;7.85;;;;;;;;;;5015614;28;20026;-85
2021/09/19 04:22:36;;;;;;;15.48;7.75;;;;;;;;;;5015202;28;20026;-85
2021/09/19 04:25:02;;;;;;;13.65;8.75;;;;;;;;;;5015156;28;20396;-84
2021/09/19 04:27:27;;;;;;;12.98;7.78;;;;;;;;;;4998406;28;20117;-85
2021/09/19 04:29:53;;;;;;;12.68;8.63;;;;;;;;;;5015679;28;20030;-84
2021/09/19 04:32:19;;;;;;;10.77;8.48;;;;;;;;;;5015610;28;20499;-85
2021/09/19 04:34:44;;;;;;;16.55;9.45;;;;;;;;;;4997830;28;20030;-85
2021/09/19 04:37:13;;;;;;;12.02;8.88;;;;;;;;;;4998067;28;20030;-85
2021/09/19 04:39:40;;;;;;;12.38;8.88;;;;;;;;;;4997759;28;20033;-85
2021/09/19 04:42:05;;;;;;;13.73;8.43;;;;;;;;;;5015535;28;20025;-84
2021/09/19 04:44:30;;;;;;;14.00;8.95;;;;;;;;;;5015601;28;20477;-85
2021/09/19 04:46:56;;;;;;;15.68;9.35;;;;;;;;;;5015386;28;20040;-84
2021/09/19 04:49:21;;;;;;;14.35;9.52;;;;;;;;;;5014793;28;20052;-84
2021/09/19 04:51:46;;;;;;;13.68;9.32;;;;;;;;;;4997734;28;20500;-85
2021/09/19 04:54:12;;;;;;;13.50;9.02;;;;;;;;;;5015404;28;20021;-85
2021/09/19 04:56:37;;;;;;;11.40;8.38;;;;;;;;;;5014299;28;20096;-85
2021/09/19 04:59:03;;;;;;;11.13;8.88;;;;;;;;;;5015073;28;20477;-84
2021/09/19 05:01:28;;;;;;;13.57;8.88;;;;;;;;;;5014641;28;20424;-84
2021/09/19 05:03:54;;;;;;;14.27;8.05;;;;;;;;;;5015173;28;20121;-84
2021/09/19 05:06:19;;;;;;;12.73;8.40;;;;;;;;;;4999602;28;20041;-85
2021/09/19 05:08:44;;;;;;;14.63;8.68;;;;;;;;;;5015217;28;20099;-84
2021/09/19 05:11:10;;;;;;;11.70;8.85;;;;;;;;;;5015650;28;20029;-84
2021/09/19 05:13:35;;;;;;;12.85;8.75;;;;;;;;;;5014740;28;20025;-84
2021/09/19 05:16:00;;;;;;;19.90;8.25;;;;;;;;;;5014586;28;20109;-84
2021/09/19 05:18:26;;;;;;;17.60;9.20;;;;;;;;;;4997166;28;20397;-84
2021/09/19 05:20:51;;;;;;;13.23;9.02;;;;;;;;;;4997204;28;20061;-84
2021/09/19 05:23:16;;;;;;;15.57;8.68;;;;;;;;;;4996979;28;20033;-84
2021/09/19 05:25:42;;;;;;;10.55;7.93;;;;;;;;;;5014626;28;20392;-84
2021/09/19 05:28:07;;;;;;;15.05;8.32;;;;;;;;;;4997309;28;20029;-84
2021/09/19 05:30:32;;;;;;;12.02;8.95;;;;;;;;;;5014928;28;20485;-84
2021/09/19 05:32:58;;;;;;;12.90;9.05;;;;;;;;;;5014629;28;20404;-85
2021/09/19 05:35:23;;;;;;;13.75;8.77;;;;;;;;;;4996773;28;20022;-84
2021/09/19 05:37:49;;;;;;;11.57;7.88;;;;;;;;;;4996772;28;20112;-85
2021/09/19 05:40:14;;;;;;;12.95;7.90;;;;;;;;;;5014681;28;20034;-84
2021/09/19 05:42:41;;;;;;;14.13;8.75;;;;;;;;;;4996883;28;20030;-84
2021/09/19 05:45:07;;;;;;;10.95;7.97;;;;;;;;;;4997097;28;20045;-84
2021/09/19 05:47:32;;;;;;;12.18;9.40;;;;;;;;;;5014142;28;20034;-84
2021/09/19 05:49:58;;;;;;;15.52;9.02;;;;;;;;;;5014648;28;20022;-84
2021/09/19 05:52:23;;;;;;;15.88;9.02;;;;;;;;;;5014383;28;20026;-84
2021/09/19 05:54:48;;;;;;;13.23;8.50;;;;;;;;;;5014997;28;20038;-84
2021/09/19 05:57:14;;;;;;;12.02;8.25;;;;;;;;;;4996930;28;20048;-84
2021/09/19 05:59:39;;;;;;;13.93;8.85;;;;;;;;;;4996810;28;20041;-84
2021/09/19 06:02:04;;;;;;;14.10;8.43;;;;;;;;;;4996901;28;20030;-84
2021/09/19 06:04:30;;;;;;;12.88;8.77;;;;;;;;;;4997486;28;20060;-84
2021/09/19 06:06:55;;;;;;;14.80;9.02;;;;;;;;;;5015349;28;20068;-85
2021/09/19 06:09:20;;;;;;;12.25;9.13;;;;;;;;;;5001791;28;20034;-84
2021/09/19 06:11:46;;;;;;;16.08;9.48;;;;;;;;;;5025623;28;20080;-84
2021/09/19 06:14:12;;;;;;;15.27;10.13;;;;;;;;;;5003474;28;20072;-84
2021/09/19 06:16:38;;;;;;;14.35;9.40;;;;;;;;;;5001446;28;20036;-85
2021/09/19 06:19:04;;;;;;;12.10;9.05;;;;;;;;;;5000883;28;20030;-85
2021/09/19 06:21:30;;;;;;;15.93;10.73;;;;;;;;;;4999708;28;20069;-85
2021/09/19 06:23:56;;;;;;;13.18;9.45;;;;;;;;;;5018016;28;20030;-85
2021/09/19 06:26:21;;;;;;;13.05;9.32;;;;;;;;;;5000038;28;20118;-84
2021/09/19 06:28:46;;;;;;;13.73;9.35;;;;;;;;;;5000092;28;20057;-85
2021/09/19 06:31:12;;;;;;;14.25;9.13;;;;;;;;;;5000019;28;20026;-85
2021/09/19 06:33:41;;;;;;;13.43;8.65;;;;;;;;;;5000208;28;20481;-85
2021/09/19 06:36:07;;;;;;;14.25;9.52;;;;;;;;;;5017570;28;20477;-85
2021/09/19 06:38:32;;;;;;;19.45;10.38;;;;;;;;;;5017960;28;20034;-85
2021/09/19 06:40:57;;;;;;;13.40;9.00;;;;;;;;;;5018114;28;20025;-85
2021/09/19 06:43:23;;;;;;;14.88;9.35;;;;;;;;;;5017057;28;20033;-84
2021/09/19 06:45:48;;;;;;;13.95;8.95;;;;;;;;;;4999590;28;20034;-85
2021/09/19 06:48:14;;;;;;;14.27;8.80;;;;;;;;;;5000378;28;20022;-85
2021/09/19 06:50:40;;;;;;;13.65;9.32;;;;;;;;;;4999666;28;20022;-85
2021/09/19 06:53:06;;;;;;;14.88;9.07;;;;;;;;;;5017659;28;20093;-85
2021/09/19 06:55:31;;;;;;;13.80;8.73;;;;;;;;;;5000405;28;20053;-85
2021/09/19 06:57:57;;;;;;;14.25;8.85;;;;;;;;;;5000197;28;20018;-85
2021/09/19 07:00:23;;;;;;;11.40;8.35;;;;;;;;;;5017106;28;20105;-85
2021/09/19 07:02:49;;;;;;;14.82;9.15;;;;;;;;;;4999474;28;20507;-84
2021/09/19 07:05:14;;;;;;;16.50;11.88;;;;;;;;;;4999420;28;20026;-85
2021/09/19 07:07:40;;;;;;;18.65;9.32;;;;;;;;;;4999430;28;20556;-85
2021/09/19 07:10:06;;;;;;;13.02;9.25;;;;;;;;;;5016912;28;20026;-85
2021/09/19 07:12:31;;;;;;;12.63;8.27;;;;;;;;;;5017042;28;20036;-84
2021/09/19 07:14:56;;;;;;;15.30;8.93;;;;;;;;;;4999417;28;20030;-85
2021/09/19 07:17:22;;;;;;;12.52;8.07;;;;;;;;;;5016832;28;20036;-85
2021/09/19 07:19:47;;;;;;;16.15;8.85;;;;;;;;;;4998361;28;20022;-84
2021/09/19 07:22:12;;;;;;;12.25;8.82;;;;;;;;;;5016304;28;20041;-84
2021/09/19 07:24:38;;;;;;;15.40;8.30;;;;;;;;;;4999337;28;20055;-84
2021/09/19 07:27:04;;;;;;;10.48;8.20;;;;;;;;;;4999096;28;20025;-84
2021/09/19 07:29:31;;;;;;;15.23;8.50;;;;;;;;;;5000862;28;20025;-84
2021/09/19 07:31:57;;;;;;;12.75;8.43;;;;;;;;;;4999813;28;20026;-85
2021/09/19 07:34:22;;;;;;;11.77;8.02;;;;;;;;;;4999055;28;20030;-84
2021/09/19 07:36:48;;;;;;;12.40;8.20;;;;;;;;;;4999084;28;20026;-84
2021/09/19 07:39:14;;;;;;;15.10;8.73;;;;;;;;;;4999425;28;20096;-85
2021/09/19 07:41:39;;;;;;;13.18;7.88;;;;;;;;;;5000088;28;20053;-85
2021/09/19 07:44:05;;;;;;;11.35;8.07;;;;;;;;;;4998929;28;20029;-84
2021/09/19 07:46:30;;;;;;;10.77;7.93;;;;;;;;;;5016268;28;20077;-84
2021/09/19 07:48:56;;;;;;;12.70;7.60;;;;;;;;;;4999065;28;20080;-85
2021/09/19 07:51:23;;;;;;;13.30;8.10;;;;;;;;;;5016403;28;20033;-84
2021/09/19 07:53:49;;;;;;;15.35;8.98;;;;;;;;;;5016569;28;20101;-85
2021/09/19 07:56:15;;;;;;;10.57;8.05;;;;;;;;;;5024610;28;20022;-84
2021/09/19 07:58:40;;;;;;;12.10;8.02;;;;;;;;;;5004535;28;20469;-85
2021/09/19 08:01:05;;;;;;;13.95;8.00;;;;;;;;;;5016766;28;20025;-84
2021/09/19 08:03:31;;;;;;;12.07;8.38;;;;;;;;;;4999412;28;20083;-84
2021/09/19 08:05:56;;;;;;;17.92;8.07;;;;;;;;;;5018095;28;20017;-84
2021/09/19 08:08:22;;;;;;;14.13;7.53;;;;;;;;;;5018196;28;20068;-84
2021/09/19 08:10:47;;;;;;;12.55;7.95;;;;;;;;;;5018439;28;20100;-84
2021/09/19 08:13:13;;;;;;;15.85;7.97;;;;;;;;;;5016853;28;20029;-86
2021/09/19 08:15:38;;;;;;;15.50;9.23;;;;;;;;;;5020460;28;20030;-85
2021/09/19 08:18:04;;;;;;;12.10;7.95;;;;;;;;;;5016912;28;20050;-85
2021/09/19 08:20:30;;;;;;;14.18;7.55;;;;;;;;;;5016047;28;20060;-85
2021/09/19 08:22:55;;;;;;;11.30;7.22;;;;;;;;;;5018567;28;20112;-84
2021/09/19 08:25:20;;;;;;;13.90;7.47;;;;;;;;;;5000128;28;20121;-83
2021/09/19 08:27:46;;;;;;;10.98;6.80;;;;;;;;;;4998578;28;20189;-83
2021/09/19 08:30:13;;;;;;;10.85;7.07;;;;;;;;;;5015632;28;20163;-84
2021/09/19 08:32:39;;;;;;;13.55;7.55;;;;;;;;;;5015729;28;20101;-84
2021/09/19 08:35:07;;;;;;;13.60;6.80;;;;;;;;;;5015363;28;20052;-83
2021/09/19 08:37:32;;;;;;;8.13;6.43;;;;;;;;;;4997677;28;20124;-83
2021/09/19 08:39:58;;;;;;;13.38;6.90;;;;;;;;;;4997721;28;20095;-83
2021/09/19 08:42:24;;;;;;;11.52;6.70;;;;;;;;;;5015444;28;20430;-83
2021/09/19 08:44:49;;;;;;;11.70;6.80;;;;;;;;;;4998015;28;20040;-83
2021/09/19 08:47:15;;;;;;;12.10;6.63;;;;;;;;;;4998358;28;20018;-83
2021/09/19 08:49:42;;;;;;;10.88;6.45;;;;;;;;;;4998827;28;20018;-82
2021/09/19 08:52:10;;;;;;;9.93;6.03;;;;;;;;;;4997943;28;20041;-83
2021/09/19 08:54:36;;;;;;;12.25;6.97;;;;;;;;;;5015669;28;20497;-84
2021/09/19 08:57:01;;;;;;;13.57;7.40;;;;;;;;;;4997556;28;20144;-83
2021/09/19 08:59:50;;;;;;;12.05;6.03;;;;;;;;;;4997009;28;20120;-84
2021/09/19 09:02:16;;;;;;;14.60;6.05;;;;;;;;;;4998623;28;20029;-83
2021/09/19 09:04:42;;;;;;;10.75;5.80;;;;;;;;;;5015745;28;20052;-83
2021/09/19 09:07:09;;;;;;;9.48;5.13;;;;;;;;;;5016122;28;20028;-82
2021/09/19 09:09:34;;;;;;;9.90;5.43;;;;;;;;;;4997803;28;20030;-82
2021/09/19 09:12:10;;;;;;;8.90;4.60;;;;;;;;;;5015878;28;20041;-82
2021/09/19 09:14:47;;;;;;;10.15;5.75;;;;;;;;;;5016295;28;20022;-82
2021/09/19 09:17:18;;;;;;;7.88;4.90;;;;;;;;;;4998341;28;20028;-82
2021/09/19 09:19:47;;;;;;;5.97;4.15;;;;;;;;;;4998756;28;20121;-82
2021/09/19 09:22:14;;;;;;;7.95;3.95;;;;;;;;;;4998969;28;20030;-82
2021/09/19 09:24:41;;;;;;;8.25;4.53;;;;;;;;;;4998086;28;20030;-82
2021/09/19 09:27:23;;;;;;;7.45;4.57;;;;;;;;;;4997988;28;20030;-82
2021/09/19 09:30:18;;;;;;;6.53;4.47;;;;;;;;;;5015155;28;20018;-83
2021/09/19 09:32:53;;;;;;;8.43;4.10;;;;;;;;;;4997655;28;20029;-83
2021/09/19 09:35:20;;;;;;;5.15;4.05;;;;;;;;;;5014555;28;20513;-83
2021/09/19 09:37:45;;;;;;;6.47;4.68;;;;;;;;;;4997368;28;20061;-83
2021/09/19 09:40:19;;;;;;;7.85;4.80;;;;;;;;;;5014611;28;20076;-84
2021/09/19 09:43:14;;;;;;;10.32;4.20;;;;;;;;;;4998806;28;20076;-83
2021/09/19 09:45:41;;;;;;;7.85;4.72;;;;;;;;;;5000719;28;20026;-84
2021/09/19 09:48:39;;;;;;;7.75;4.78;;;;;;;;;;5019336;28;20025;-83
2021/09/19 09:51:23;;;;;;;8.30;4.90;;;;;;;;;;4998142;28;20038;-83
2021/09/19 09:54:06;;;;;;;6.97;4.43;;;;;;;;;;5001394;28;20021;-83
2021/09/19 09:56:32;;;;;;;6.70;4.80;;;;;;;;;;5019728;28;20056;-83
2021/09/19 09:58:58;;;;;;;8.90;5.22;;;;;;;;;;5019869;28;20029;-84
2021/09/19 10:01:23;;;;;;;6.75;5.00;;;;;;;;;;5001838;28;20018;-84
2021/09/19 10:03:49;;;;;;;7.93;5.40;;;;;;;;;;5001527;28;20065;-83
2021/09/19 10:06:14;;;;;;;6.38;4.97;;;;;;;;;;5001184;28;20113;-84
2021/09/19 10:08:41;;;;;;;8.05;5.32;;;;;;;;;;5002882;28;20037;-84
2021/09/19 10:11:10;;;;;;;9.60;5.10;;;;;;;;;;5001060;28;20120;-84
2021/09/19 10:13:44;;;;;;;7.28;5.00;;;;;;;;;;5023871;28;20022;-86
2021/09/19 10:16:10;;;;;;;7.07;5.45;;;;;;;;;;5028044;28;20037;-87
2021/09/19 10:18:36;;;;;;;6.60;5.22;;;;;;;;;;5026454;28;20501;-86
2021/09/19 10:21:03;;;;;;;8.95;4.72;;;;;;;;;;5025325;28;20049;-87
2021/09/19 10:23:32;;;;;;;7.00;5.18;;;;;;;;;;5024253;28;20026;-86
2021/09/19 10:26:07;;;;;;;6.47;5.00;;;;;;;;;;5008159;28;20401;-86
2021/09/19 10:28:41;;;;;;;8.25;4.60;;;;;;;;;;5008782;28;20053;-86
2021/09/19 10:31:09;;;;;;;9.30;4.95;;;;;;;;;;5025908;28;20030;-86
2021/09/19 10:33:58;;;;;;;7.32;4.70;;;;;;;;;;5027997;28;20014;-86
2021/09/19 10:36:37;;;;;;;11.00;5.07;;;;;;;;;;5028387;28;20022;-85
2021/09/19 10:39:22;;;;;;;9.50;4.55;;;;;;;;;;5028251;28;20032;-86
2021/09/19 10:42:28;;;;;;;6.72;4.57;;;;;;;;;;5028175;28;20029;-86
2021/09/19 10:44:57;;;;;;;7.55;4.78;;;;;;;;;;5027572;28;20021;-86
2021/09/19 10:47:22;;;;;;;8.38;5.07;;;;;;;;;;5028109;28;20066;-86
2021/09/19 10:49:48;;;;;;;6.32;4.85;;;;;;;;;;5029511;28;20108;-87
2021/09/19 10:52:18;;;;;;;6.30;4.75;;;;;;;;;;5028022;28;20050;-86
2021/09/19 10:54:51;;;;;;;8.80;5.60;;;;;;;;;;5026682;28;20027;-85
2021/09/19 10:57:20;;;;;;;7.22;5.10;;;;;;;;;;5027787;28;20026;-86
2021/09/19 11:00:07;;;;;;;10.48;4.72;;;;;;;;;;5028476;28;20496;-84
2021/09/19 11:02:36;;;;;;;7.97;4.88;;;;;;;;;;5028483;28;20026;-86
2021/09/19 11:05:21;;;;;;;8.27;4.43;;;;;;;;;;5027869;28;20029;-85
2021/09/19 11:07:49;;;;;;;9.05;4.65;;;;;;;;;;5027326;28;20022;-85
2021/09/19 11:10:15;;;;;;;7.90;4.35;;;;;;;;;;5028953;28;20049;-85
2021/09/19 11:12:46;;;;;;;10.23;4.40;;;;;;;;;;5027577;28;20053;-84
2021/09/19 11:15:22;;;;;;;10.32;4.28;;;;;;;;;;5027758;28;20040;-86
2021/09/19 11:17:49;;;;;;;8.10;4.78;;;;;;;;;;5028026;28;20085;-86
2021/09/19 11:20:16;;;;;;;4.88;3.85;;;;;;;;;;5027275;28;20105;-86
2021/09/19 11:22:47;;;;;;;9.65;4.20;;;;;;;;;;5027323;28;20032;-86
2021/09/19 11:25:15;;;;;;;7.18;4.22;;;;;;;;;;5027474;28;20030;-85
2021/09/19 11:27:43;;;;;;;6.18;3.83;;;;;;;;;;5026797;28;20026;-86
2021/09/19 11:30:10;;;;;;;6.32;4.00;;;;;;;;;;5027081;28;20080;-85
2021/09/19 11:32:37;;;;;;;6.05;3.75;;;;;;;;;;5026106;28;20029;-85
2021/09/19 11:35:03;;;;;;;6.75;3.72;;;;;;;;;;5028478;28;20032;-85
2021/09/19 11:37:28;;;;;;;6.00;3.15;;;;;;;;;;5027053;28;20086;-85
2021/09/19 11:39:54;;;;;;;7.28;4.25;;;;;;;;;;5027038;28;20025;-85
2021/09/19 11:42:20;;;;;;;7.88;4.20;;;;;;;;;;5008035;28;20026;-86
2021/09/19 11:44:49;;;;;;;5.53;3.80;;;;;;;;;;5025562;28;20481;-85
2021/09/19 11:47:16;;;;;;;8.35;4.40;;;;;;;;;;5026397;28;20025;-85
2021/09/19 11:49:43;;;;;;;10.73;4.13;;;;;;;;;;5026313;28;20021;-86
2021/09/19 11:52:09;;;;;;;7.15;4.13;;;;;;;;;;5009375;28;20053;-83
2021/09/19 11:54:35;;;;;;;5.05;3.90;;;;;;;;;;5026119;28;20084;-85
2021/09/19 11:57:01;;;;;;;6.38;3.97;;;;;;;;;;5026729;28;20029;-85
2021/09/19 11:59:27;;;;;;;7.38;4.18;;;;;;;;;;5026570;28;20053;-85
2021/09/19 12:01:55;;;;;;;5.55;3.83;;;;;;;;;;5026312;28;20026;-86
2021/09/19 12:04:21;;;;;;;9.13;4.28;;;;;;;;;;5027204;28;20596;-85
2021/09/19 12:06:47;;;;;;;11.32;4.05;;;;;;;;;;5025920;28;20029;-85
2021/09/19 12:09:17;;;;;;;8.32;3.80;;;;;;;;;;5027135;28;20038;-85
2021/09/19 12:11:49;;;;;;;6.07;4.20;;;;;;;;;;5025889;28;20021;-85
2021/09/19 12:14:20;;;;;;;9.07;4.00;;;;;;;;;;5026868;28;20571;-85
2021/09/19 12:16:55;;;;;;;7.22;3.78;;;;;;;;;;5027445;28;20080;-84
2021/09/19 12:19:22;;;;;;;6.45;3.85;;;;;;;;;;5028436;28;20021;-85
2021/09/19 12:22:07;;;;;;;8.00;3.83;;;;;;;;;;5028521;28;20030;-85
2021/09/19 12:24:36;;;;;;;8.10;4.22;;;;;;;;;;5027088;28;20026;-85
2021/09/19 12:27:32;;;;;;;24.40;5.32;;;;;;;;;;5027627;28;20033;-85
2021/09/19 12:30:05;;;;;;;7.78;4.38;;;;;;;;;;5016008;28;20042;-83
2021/09/19 12:32:36;;;;;;;7.65;3.67;;;;;;;;;;5001138;28;20018;-83
2021/09/19 12:35:08;;;;;;;8.82;3.63;;;;;;;;;;5021313;28;20397;-83
2021/09/19 12:37:41;;;;;;;6.13;4.03;;;;;;;;;;5001660;28;20025;-83
2021/09/19 12:40:07;;;;;;;;;;;;;;;;;;5019558;28;20116;-83
2021/09/19 12:42:33;;;;;;;6.10;3.75;;;;;;;;;;5009364;28;19913;-83
2021/09/19 12:44:58;;;;;;;10.73;3.40;;;;;;;;;;5020712;28;20124;-83
2021/09/19 12:47:32;;;;;;;7.57;3.95;;;;;;;;;;5008104;28;20068;-83
2021/09/19 12:49:58;;;;;;;4.82;3.50;;;;;;;;;;5000734;28;20021;-83
2021/09/19 12:52:31;;;;;;;5.95;3.40;;;;;;;;;;4999083;28;20116;-83
2021/09/19 12:54:59;;;;;;;6.00;4.05;;;;;;;;;;5017642;28;20022;-83
2021/09/19 12:57:28;;;;;;;6.72;3.40;;;;;;;;;;4999309;28;20037;-86
2021/09/19 12:59:54;;;;;;;7.93;5.75;;;;;;;;;;5017071;28;20022;-87
2021/09/19 13:02:21;;;;;;;7.07;3.70;;;;;;;;;;4999445;28;20056;-86
2021/09/19 13:04:47;;;;;;;4.88;3.33;;;;;;;;;;5016420;28;20033;-86
2021/09/19 13:07:14;;;;;;;6.07;3.50;;;;;;;;;;5017137;28;20443;-86
2021/09/19 13:09:40;;;;;;;6.65;3.35;;;;;;;;;;4998988;28;20033;-86
2021/09/19 13:12:06;;;;;;;7.45;3.60;;;;;;;;;;4998657;28;20026;-87
2021/09/19 13:14:32;;;;;;;5.22;3.92;;;;;;;;;;5015759;28;20025;-86
2021/09/19 13:16:58;;;;;;;5.88;3.83;;;;;;;;;;4998354;28;20022;-86
2021/09/19 13:19:23;;;;;;;6.03;3.83;;;;;;;;;;5015685;28;20029;-86
2021/09/19 13:21:49;;;;;;;5.10;3.45;;;;;;;;;;5016276;28;20458;-87
2021/09/19 13:24:16;;;;;;;7.88;4.13;;;;;;;;;;5015579;28;20108;-87
2021/09/19 13:26:43;;;;;;;11.98;4.40;;;;;;;;;;5016438;28;20116;-87
2021/09/19 13:29:10;;;;;;;5.65;3.22;;;;;;;;;;5015841;28;20087;-87
2021/09/19 13:31:36;;;;;;;7.70;3.05;;;;;;;;;;5016295;28;20489;-87
2021/09/19 13:34:02;;;;;;;8.20;3.33;;;;;;;;;;5016187;28;20029;-86
2021/09/19 13:36:28;;;;;;;5.53;3.20;;;;;;;;;;4998981;28;20374;-87
2021/09/19 13:38:55;;;;;;;6.82;3.15;;;;;;;;;;5015924;28;20030;-87
2021/09/19 13:41:21;;;;;;;5.25;3.30;;;;;;;;;;5015773;28;20022;-87
2021/09/19 13:43:47;;;;;;;5.10;3.17;;;;;;;;;;5015609;28;20080;-88
2021/09/19 13:46:13;;;;;;;4.40;2.85;;;;;;;;;;5015887;28;20025;-87
2021/09/19 13:48:38;;;;;;;7.80;2.70;;;;;;;;;;5016013;28;20395;-87
2021/09/19 13:51:05;;;;;;;6.22;3.25;;;;;;;;;;5015831;28;20110;-86
2021/09/19 13:53:31;;;;;;;5.78;2.90;;;;;;;;;;5015436;28;20018;-87
2021/09/19 13:55:58;;;;;;;4.18;2.90;;;;;;;;;;4997847;28;20030;-86
2021/09/19 13:58:24;;;;;;;16.80;9.18;;;;;;;;;;5015409;28;20112;-87
2021/09/19 14:00:49;;;;;;;6.18;3.15;;;;;;;;;;5015181;28;20029;-87
2021/09/19 14:03:15;;;;;;;4.72;2.70;;;;;;;;;;5015382;28;20022;-87
2021/09/19 14:05:41;;;;;;;4.65;2.85;;;;;;;;;;5015187;28;20026;-86
2021/09/19 14:08:13;;;;;;;4.72;2.70;;;;;;;;;;5015261;28;20083;-86
2021/09/19 14:10:39;;;;;;;4.50;3.25;;;;;;;;;;4997760;28;20026;-87
2021/09/19 14:13:05;;;;;;;6.43;2.88;;;;;;;;;;5014391;28;20029;-87
2021/09/19 14:15:31;;;;;;;6.93;2.90;;;;;;;;;;5034921;28;20026;-84
2021/09/19 14:17:57;;;;;;;5.95;2.65;;;;;;;;;;5036584;28;20052;-87
2021/09/19 14:20:22;;;;;;;5.72;2.85;;;;;;;;;;5016974;28;20050;-88
2021/09/19 14:22:48;;;;;;;6.82;3.00;;;;;;;;;;5016145;28;20018;-87
2021/09/19 14:25:14;;;;;;;5.90;2.95;;;;;;;;;;5016773;28;20036;-87
2021/09/19 14:27:40;;;;;;;7.22;3.03;;;;;;;;;;4999418;28;20087;-87
2021/09/19 14:30:07;;;;;;;5.20;2.90;;;;;;;;;;5018920;28;20026;-87
2021/09/19 14:32:32;;;;;;;5.72;3.33;;;;;;;;;;5019200;28;20079;-87
2021/09/19 14:34:57;;;;;;;9.10;3.15;;;;;;;;;;5001274;28;20022;-87
2021/09/19 14:37:23;;;;;;;4.00;3.15;;;;;;;;;;5019306;28;20037;-87